createdAt,value
2016-12-17T00:01:08.267Z,0
2016-12-17T00:02:16.978Z,0
2016-12-17T00:03:25.669Z,0
2016-12-17T00:04:34.360Z,0
2016-12-17T00:05:43.042Z,0
2016-12-17T00:06:51.732Z,0
2016-12-17T00:08:00.420Z,0
2016-12-17T00:09:09.111Z,0
2016-12-17T00:10:17.798Z,0
2016-12-17T00:11:26.512Z,0
2016-12-17T00:12:35.201Z,0
2016-12-17T00:13:43.888Z,0
2016-12-17T00:14:52.885Z,0
2016-12-17T00:16:01.573Z,0
2016-12-17T00:17:10.361Z,0
2016-12-17T00:18:19.373Z,0
2016-12-17T00:19:28.060Z,0
2016-12-17T00:20:36.748Z,0
2016-12-17T00:21:45.446Z,0
2016-12-17T00:22:54.188Z,0
2016-12-17T00:24:03.195Z,0
2016-12-17T00:25:11.883Z,0
2016-12-17T00:26:20.572Z,0
2016-12-17T00:27:29.260Z,0
2016-12-17T00:28:37.948Z,0
2016-12-17T00:29:46.634Z,0
2016-12-17T00:30:55.322Z,0
2016-12-17T00:32:04.005Z,0
2016-12-17T00:33:12.686Z,0
2016-12-17T00:34:21.375Z,0
2016-12-17T00:35:30.090Z,0
2016-12-17T00:36:38.777Z,0
2016-12-17T00:37:47.461Z,0
2016-12-17T00:38:56.151Z,0
2016-12-17T00:40:04.841Z,0
2016-12-17T00:41:13.531Z,0
2016-12-17T00:42:22.217Z,0
2016-12-17T00:43:30.918Z,0
2016-12-17T00:44:39.603Z,0
2016-12-17T00:45:48.314Z,0
2016-12-17T00:46:57.000Z,0
2016-12-17T00:48:05.688Z,0
2016-12-17T00:49:14.372Z,0
2016-12-17T00:50:23.057Z,0
2016-12-17T00:51:31.742Z,0
2016-12-17T00:52:40.430Z,0
2016-12-17T00:53:49.115Z,0
2016-12-17T00:54:57.821Z,0
2016-12-17T00:56:06.526Z,0
2016-12-17T00:57:15.210Z,0
2016-12-17T00:58:23.898Z,0
2016-12-17T00:59:32.588Z,0
2016-12-17T01:00:41.270Z,0
2016-12-17T01:01:49.956Z,0
2016-12-17T01:02:58.640Z,0
2016-12-17T01:04:07.643Z,0
2016-12-17T01:05:16.324Z,0
2016-12-17T01:06:25.006Z,0
2016-12-17T01:07:33.690Z,0
2016-12-17T01:08:42.380Z,0
2016-12-17T01:09:51.066Z,0
2016-12-17T01:10:59.748Z,0
2016-12-17T01:12:08.435Z,0
2016-12-17T01:13:17.156Z,0
2016-12-17T01:14:26.160Z,0
2016-12-17T01:15:34.879Z,0
2016-12-17T01:16:43.562Z,0
2016-12-17T01:17:52.261Z,0
2016-12-17T01:19:00.946Z,0
2016-12-17T01:20:09.635Z,0
2016-12-17T01:21:18.314Z,0
2016-12-17T01:22:27.002Z,0
2016-12-17T01:23:35.692Z,0
2016-12-17T01:24:44.382Z,0
2016-12-17T01:25:53.072Z,0
2016-12-17T01:27:01.757Z,0
2016-12-17T01:28:10.443Z,0
2016-12-17T01:29:19.448Z,0
2016-12-17T01:30:28.132Z,0
2016-12-17T01:31:36.824Z,0
2016-12-17T01:32:45.511Z,0
2016-12-17T01:33:54.202Z,0
2016-12-17T01:35:02.921Z,0
2016-12-17T01:36:11.615Z,0
2016-12-17T01:37:20.299Z,0
2016-12-17T01:38:28.991Z,0
2016-12-17T01:39:37.678Z,0
2016-12-17T01:40:46.367Z,0
2016-12-17T01:41:55.052Z,0
2016-12-17T01:43:04.067Z,0
2016-12-17T01:44:12.755Z,0
2016-12-17T01:45:21.436Z,0
2016-12-17T01:46:30.122Z,0
2016-12-17T01:47:38.815Z,0
2016-12-17T01:48:47.532Z,0
2016-12-17T01:49:56.252Z,0
2016-12-17T01:51:04.936Z,0
2016-12-17T01:52:13.624Z,0
2016-12-17T01:53:22.313Z,0
2016-12-17T01:54:30.992Z,0
2016-12-17T01:55:39.680Z,0
2016-12-17T01:56:48.366Z,0
2016-12-17T01:57:57.053Z,0
2016-12-17T01:59:05.744Z,0
2016-12-17T02:00:14.429Z,0
2016-12-17T02:01:23.138Z,0
2016-12-17T02:02:31.832Z,0
2016-12-17T02:03:40.517Z,0
2016-12-17T02:04:49.210Z,0
2016-12-17T02:05:57.911Z,0
2016-12-17T02:07:06.606Z,0
2016-12-17T02:08:15.616Z,0
2016-12-17T02:09:24.331Z,0
2016-12-17T02:10:33.024Z,0
2016-12-17T02:11:41.703Z,0
2016-12-17T02:12:50.391Z,0
2016-12-17T02:13:59.079Z,0
2016-12-17T02:15:07.768Z,0
2016-12-17T02:16:16.475Z,0
2016-12-17T02:17:25.168Z,0
2016-12-17T02:18:33.862Z,0
2016-12-17T02:19:42.547Z,0
2016-12-17T02:20:51.233Z,0
2016-12-17T02:21:59.956Z,0
2016-12-17T02:23:08.652Z,0
2016-12-17T02:24:17.341Z,0
2016-12-17T02:25:26.030Z,0
2016-12-17T02:26:34.723Z,0
2016-12-17T02:27:43.408Z,0
2016-12-17T02:28:52.092Z,0
2016-12-17T02:30:00.776Z,0
2016-12-17T02:31:09.460Z,0
2016-12-17T02:32:18.147Z,0
2016-12-17T02:33:26.833Z,0
2016-12-17T02:34:35.844Z,0
2016-12-17T02:35:44.531Z,0
2016-12-17T02:36:53.221Z,0
2016-12-17T02:38:01.915Z,0
2016-12-17T02:39:10.601Z,0
2016-12-17T02:40:19.286Z,0
2016-12-17T02:41:27.976Z,0
2016-12-17T02:42:36.660Z,0
2016-12-17T02:43:45.378Z,0
2016-12-17T02:44:54.065Z,0
2016-12-17T02:46:02.757Z,0
2016-12-17T02:47:11.445Z,0
2016-12-17T02:48:20.130Z,0
2016-12-17T02:49:28.816Z,0
2016-12-17T02:50:37.499Z,0
2016-12-17T02:51:46.192Z,0
2016-12-17T02:52:54.875Z,0
2016-12-17T02:54:03.561Z,0
2016-12-17T02:55:12.250Z,0
2016-12-17T02:56:20.935Z,0
2016-12-17T02:57:29.627Z,0
2016-12-17T02:58:38.320Z,0
2016-12-17T02:59:47.014Z,0
2016-12-17T03:00:55.699Z,0
2016-12-17T03:02:04.394Z,0
2016-12-17T03:03:13.075Z,0
2016-12-17T03:04:21.761Z,0
2016-12-17T03:05:30.447Z,0
2016-12-17T03:06:39.161Z,0
2016-12-17T03:07:47.856Z,0
2016-12-17T03:08:56.578Z,0
2016-12-17T03:10:05.262Z,0
2016-12-17T03:11:13.951Z,0
2016-12-17T03:12:22.645Z,0
2016-12-17T03:13:31.329Z,0
2016-12-17T03:14:40.046Z,0
2016-12-17T03:15:48.750Z,0
2016-12-17T03:16:57.430Z,0
2016-12-17T03:18:06.120Z,0
2016-12-17T03:19:15.441Z,0
2016-12-17T03:20:24.126Z,0
2016-12-17T03:21:32.805Z,0
2016-12-17T03:22:41.494Z,0
2016-12-17T03:23:50.180Z,0
2016-12-17T03:24:58.869Z,0
2016-12-17T03:26:07.558Z,0
2016-12-17T03:27:16.254Z,0
2016-12-17T03:28:24.937Z,0
2016-12-17T03:29:33.625Z,0
2016-12-17T03:30:42.309Z,0
2016-12-17T03:31:50.993Z,0
2016-12-17T03:32:59.682Z,0
2016-12-17T03:34:08.368Z,0
2016-12-17T03:35:17.061Z,0
2016-12-17T03:36:25.751Z,0
2016-12-17T03:37:34.443Z,0
2016-12-17T03:38:43.160Z,0
2016-12-17T03:39:51.875Z,0
2016-12-17T03:41:00.565Z,0
2016-12-17T03:42:09.254Z,0
2016-12-17T03:43:17.941Z,0
2016-12-17T03:44:26.629Z,0
2016-12-17T03:45:35.358Z,0
2016-12-17T03:46:44.043Z,0
2016-12-17T03:47:52.758Z,0
2016-12-17T03:49:01.444Z,0
2016-12-17T03:50:10.133Z,0
2016-12-17T03:51:18.822Z,0
2016-12-17T03:52:27.508Z,0
2016-12-17T03:53:36.195Z,0
2016-12-17T03:54:44.886Z,0
2016-12-17T03:55:53.568Z,0
2016-12-17T03:57:02.281Z,0
2016-12-17T03:58:10.971Z,0
2016-12-17T03:59:19.657Z,0
2016-12-17T04:00:28.342Z,0
2016-12-17T04:01:37.029Z,0
2016-12-17T04:02:45.716Z,0
2016-12-17T04:03:54.409Z,0
2016-12-17T04:05:03.102Z,0
2016-12-17T04:06:11.788Z,0
2016-12-17T04:07:20.483Z,0
2016-12-17T04:08:29.166Z,0
2016-12-17T04:09:37.850Z,0
2016-12-17T04:10:46.546Z,0
2016-12-17T04:11:55.234Z,0
2016-12-17T04:13:03.929Z,0
2016-12-17T04:14:12.611Z,0
2016-12-17T04:15:21.296Z,0
2016-12-17T04:16:29.986Z,0
2016-12-17T04:17:38.994Z,0
2016-12-17T04:18:47.679Z,0
2016-12-17T04:19:56.369Z,0
2016-12-17T04:21:05.064Z,0
2016-12-17T04:22:13.766Z,0
2016-12-17T04:23:22.451Z,0
2016-12-17T04:24:31.139Z,0
2016-12-17T04:25:39.827Z,0
2016-12-17T04:26:48.516Z,0
2016-12-17T04:27:57.232Z,0
2016-12-17T04:29:05.919Z,0
2016-12-17T04:30:14.601Z,0
2016-12-17T04:31:23.287Z,0
2016-12-17T04:32:31.972Z,0
2016-12-17T04:33:40.656Z,0
2016-12-17T04:34:49.342Z,0
2016-12-17T04:35:58.030Z,0
2016-12-17T04:37:06.718Z,0
2016-12-17T04:38:15.408Z,0
2016-12-17T04:39:24.122Z,0
2016-12-17T04:40:32.810Z,0
2016-12-17T04:41:41.499Z,0
2016-12-17T04:42:50.189Z,0
2016-12-17T04:43:58.885Z,0
2016-12-17T04:45:07.882Z,0
2016-12-17T04:46:16.567Z,0
2016-12-17T04:47:25.257Z,0
2016-12-17T04:48:33.975Z,0
2016-12-17T04:49:42.666Z,0
2016-12-17T04:50:51.349Z,0
2016-12-17T04:52:00.345Z,0
2016-12-17T04:53:09.033Z,0
2016-12-17T04:54:17.721Z,0
2016-12-17T04:55:26.409Z,0
2016-12-17T04:56:35.113Z,0
2016-12-17T04:57:43.856Z,0
2016-12-17T04:58:52.577Z,0
2016-12-17T05:00:01.263Z,0
2016-12-17T05:01:09.953Z,0
2016-12-17T05:02:18.645Z,0
2016-12-17T05:03:27.332Z,0
2016-12-17T05:04:36.019Z,0
2016-12-17T05:05:45.026Z,0
2016-12-17T05:06:53.708Z,0
2016-12-17T05:08:02.400Z,0
2016-12-17T05:09:11.147Z,0
2016-12-17T05:10:19.836Z,0
2016-12-17T05:11:28.522Z,0
2016-12-17T05:12:37.528Z,0
2016-12-17T05:13:46.213Z,0
2016-12-17T05:14:54.902Z,0
2016-12-17T05:16:03.587Z,0
2016-12-17T05:17:12.272Z,0
2016-12-17T05:18:20.955Z,0
2016-12-17T05:19:29.639Z,0
2016-12-17T05:20:38.326Z,0
2016-12-17T05:21:47.012Z,0
2016-12-17T05:22:55.738Z,0
2016-12-17T05:24:04.431Z,0
2016-12-17T05:25:13.117Z,0
2016-12-17T05:26:21.804Z,0
2016-12-17T05:27:30.487Z,0
2016-12-17T05:28:39.171Z,0
2016-12-17T05:29:47.859Z,0
2016-12-17T05:30:56.549Z,0
2016-12-17T05:32:05.237Z,0
2016-12-17T05:33:13.920Z,0
2016-12-17T05:34:22.608Z,0
2016-12-17T05:35:31.299Z,0
2016-12-17T05:36:39.988Z,0
2016-12-17T05:37:48.669Z,0
2016-12-17T05:38:57.357Z,0
2016-12-17T05:40:06.044Z,0
2016-12-17T05:41:14.732Z,0
2016-12-17T05:42:23.421Z,0
2016-12-17T05:43:32.115Z,0
2016-12-17T05:44:40.802Z,0
2016-12-17T05:45:49.490Z,0
2016-12-17T05:46:58.183Z,0
2016-12-17T05:48:06.868Z,0
2016-12-17T05:49:15.564Z,0
2016-12-17T05:50:24.253Z,0
2016-12-17T05:51:32.938Z,0
2016-12-17T05:52:41.626Z,0
2016-12-17T05:53:50.311Z,0
2016-12-17T05:54:59.004Z,0
2016-12-17T05:56:07.693Z,0
2016-12-17T05:57:16.384Z,0
2016-12-17T05:58:25.073Z,0
2016-12-17T05:59:33.766Z,0
2016-12-17T06:00:42.451Z,0
2016-12-17T06:01:51.139Z,0
2016-12-17T06:02:59.827Z,0
2016-12-17T06:04:08.516Z,0
2016-12-17T06:05:17.200Z,0
2016-12-17T06:06:25.888Z,0
2016-12-17T06:07:34.576Z,0
2016-12-17T06:08:43.268Z,0
2016-12-17T06:09:51.958Z,0
2016-12-17T06:11:00.650Z,0
2016-12-17T06:12:09.336Z,0
2016-12-17T06:13:18.024Z,0
2016-12-17T06:14:26.716Z,0
2016-12-17T06:15:35.409Z,0
2016-12-17T06:16:44.094Z,0
2016-12-17T06:17:52.777Z,0
2016-12-17T06:19:01.462Z,0
2016-12-17T06:20:10.149Z,0
2016-12-17T06:21:18.866Z,0
2016-12-17T06:22:27.553Z,0
2016-12-17T06:23:36.240Z,0
2016-12-17T06:24:44.931Z,0
2016-12-17T06:25:53.619Z,0
2016-12-17T06:27:02.315Z,0
2016-12-17T06:28:11.001Z,0
2016-12-17T06:29:19.693Z,0
2016-12-17T06:30:28.379Z,0
2016-12-17T06:31:37.074Z,0
2016-12-17T06:32:45.761Z,0
2016-12-17T06:33:54.449Z,0
2016-12-17T06:35:03.133Z,0
2016-12-17T06:36:11.819Z,0
2016-12-17T06:37:20.507Z,0
2016-12-17T06:38:29.191Z,0
2016-12-17T06:39:37.884Z,0
2016-12-17T06:40:46.576Z,0
2016-12-17T06:41:55.265Z,0
2016-12-17T06:43:03.951Z,0
2016-12-17T06:44:12.642Z,0
2016-12-17T06:45:21.331Z,0
2016-12-17T06:46:30.020Z,0
2016-12-17T06:47:38.706Z,0
2016-12-17T06:48:47.400Z,0
2016-12-17T06:49:56.086Z,0
2016-12-17T06:51:04.768Z,0
2016-12-17T06:52:13.456Z,0
2016-12-17T06:53:22.143Z,0
2016-12-17T06:54:30.824Z,0
2016-12-17T06:55:39.508Z,0
2016-12-17T06:56:48.193Z,0
2016-12-17T06:57:56.880Z,0
2016-12-17T06:59:05.565Z,0
2016-12-17T07:00:14.253Z,0
2016-12-17T07:01:22.969Z,0
2016-12-17T07:02:31.657Z,0
2016-12-17T07:03:40.375Z,0
2016-12-17T07:04:49.064Z,0
2016-12-17T07:05:57.774Z,0
2016-12-17T07:07:06.459Z,0
2016-12-17T07:08:15.147Z,0
2016-12-17T07:09:23.837Z,0
2016-12-17T07:10:32.520Z,0
2016-12-17T07:11:41.201Z,0
2016-12-17T07:12:49.889Z,0
2016-12-17T07:13:58.579Z,0
2016-12-17T07:15:07.273Z,0
2016-12-17T07:16:15.962Z,0
2016-12-17T07:17:24.650Z,0
2016-12-17T07:18:33.346Z,0
2016-12-17T07:19:42.035Z,0
2016-12-17T07:20:50.717Z,0
2016-12-17T07:21:59.403Z,0
2016-12-17T07:23:08.090Z,0
2016-12-17T07:24:16.782Z,4
2016-12-17T07:25:25.526Z,4
2016-12-17T07:26:34.207Z,0
2016-12-17T07:27:42.903Z,0
2016-12-17T07:28:51.585Z,0
2016-12-17T07:30:00.270Z,0
2016-12-17T07:31:08.958Z,4
2016-12-17T07:32:17.647Z,4
2016-12-17T07:33:26.333Z,0
2016-12-17T07:34:35.017Z,4
2016-12-17T07:35:43.698Z,4
2016-12-17T07:36:52.387Z,4
2016-12-17T07:38:01.074Z,4
2016-12-17T07:39:09.758Z,4
2016-12-17T07:40:18.450Z,4
2016-12-17T07:41:27.132Z,4
2016-12-17T07:42:35.828Z,8
2016-12-17T07:43:44.512Z,8
2016-12-17T07:44:53.201Z,8
2016-12-17T07:46:01.888Z,12
2016-12-17T07:47:10.574Z,12
2016-12-17T07:48:19.260Z,12
2016-12-17T07:49:27.943Z,16
2016-12-17T07:50:36.625Z,16
2016-12-17T07:51:45.313Z,16
2016-12-17T07:52:53.999Z,20
2016-12-17T07:54:02.685Z,24
2016-12-17T07:55:11.368Z,24
2016-12-17T07:56:20.053Z,24
2016-12-17T07:57:28.736Z,32
2016-12-17T07:58:37.425Z,36
2016-12-17T07:59:46.108Z,40
2016-12-17T08:00:54.788Z,44
2016-12-17T08:02:03.794Z,48
2016-12-17T08:03:12.486Z,52
2016-12-17T08:04:21.172Z,56
2016-12-17T08:05:29.862Z,64
2016-12-17T08:06:38.551Z,68
2016-12-17T08:07:47.236Z,68
2016-12-17T08:08:55.917Z,72
2016-12-17T08:10:04.605Z,72
2016-12-17T08:11:13.292Z,76
2016-12-17T08:12:21.983Z,80
2016-12-17T08:13:30.737Z,84
2016-12-17T08:14:39.424Z,88
2016-12-17T08:15:48.113Z,92
2016-12-17T08:16:56.801Z,100
2016-12-17T08:18:05.485Z,108
2016-12-17T08:19:14.169Z,120
2016-12-17T08:20:22.853Z,132
2016-12-17T08:21:31.551Z,140
2016-12-17T08:22:40.235Z,148
2016-12-17T08:23:48.922Z,148
2016-12-17T08:24:57.613Z,156
2016-12-17T08:26:06.298Z,160
2016-12-17T08:27:14.979Z,164
2016-12-17T08:28:23.670Z,172
2016-12-17T08:29:32.352Z,176
2016-12-17T08:30:41.034Z,180
2016-12-17T08:31:49.726Z,188
2016-12-17T08:32:58.415Z,192
2016-12-17T08:34:07.096Z,200
2016-12-17T08:35:15.787Z,212
2016-12-17T08:36:24.473Z,216
2016-12-17T08:37:33.159Z,224
2016-12-17T08:38:41.848Z,236
2016-12-17T08:39:50.542Z,256
2016-12-17T08:40:59.232Z,276
2016-12-17T08:42:07.928Z,304
2016-12-17T08:43:16.617Z,328
2016-12-17T08:44:25.303Z,356
2016-12-17T08:45:33.988Z,384
2016-12-17T08:46:42.712Z,412
2016-12-17T08:47:51.397Z,436
2016-12-17T08:49:00.084Z,456
2016-12-17T08:50:08.768Z,472
2016-12-17T08:51:17.451Z,492
2016-12-17T08:52:26.291Z,504
2016-12-17T08:53:34.978Z,504
2016-12-17T08:54:43.664Z,512
2016-12-17T08:55:52.353Z,528
2016-12-17T08:57:01.041Z,536
2016-12-17T08:58:09.724Z,536
2016-12-17T08:59:18.446Z,544
2016-12-17T09:00:27.131Z,552
2016-12-17T09:01:35.821Z,568
2016-12-17T09:02:44.533Z,568
2016-12-17T09:03:53.218Z,568
2016-12-17T09:05:01.909Z,564
2016-12-17T09:06:10.908Z,560
2016-12-17T09:07:19.598Z,556
2016-12-17T09:08:28.283Z,556
2016-12-17T09:09:36.972Z,560
2016-12-17T09:10:45.685Z,556
2016-12-17T09:11:54.371Z,560
2016-12-17T09:13:03.062Z,564
2016-12-17T09:14:11.748Z,568
2016-12-17T09:15:20.441Z,576
2016-12-17T09:16:29.445Z,584
2016-12-17T09:17:38.129Z,588
2016-12-17T09:18:46.817Z,592
2016-12-17T09:19:55.500Z,600
2016-12-17T09:21:04.186Z,608
2016-12-17T09:22:12.867Z,620
2016-12-17T09:23:21.549Z,640
2016-12-17T09:24:30.233Z,664
2016-12-17T09:25:38.924Z,692
2016-12-17T09:26:47.615Z,728
2016-12-17T09:27:56.302Z,768
2016-12-17T09:29:04.989Z,812
2016-12-17T09:30:13.673Z,852
2016-12-17T09:31:22.356Z,880
2016-12-17T09:32:31.047Z,920
2016-12-17T09:33:39.739Z,960
2016-12-17T09:34:48.420Z,988
2016-12-17T09:35:57.111Z,1004
2016-12-17T09:37:05.800Z,1012
2016-12-17T09:38:14.483Z,1016
2016-12-17T09:39:23.170Z,1020
2016-12-17T09:40:31.854Z,1016
2016-12-17T09:41:40.538Z,1012
2016-12-17T09:42:49.226Z,1008
2016-12-17T09:43:57.913Z,1016
2016-12-17T09:45:06.599Z,1036
2016-12-17T09:46:15.290Z,1072
2016-12-17T09:47:23.972Z,1100
2016-12-17T09:48:32.657Z,1132
2016-12-17T09:49:41.346Z,1160
2016-12-17T09:50:50.032Z,1216
2016-12-17T09:51:58.721Z,1276
2016-12-17T09:53:07.404Z,1344
2016-12-17T09:54:16.088Z,1420
2016-12-17T09:55:24.778Z,1496
2016-12-17T09:56:33.465Z,1564
2016-12-17T09:57:42.154Z,1592
2016-12-17T09:58:50.837Z,1600
2016-12-17T09:59:59.526Z,1616
2016-12-17T10:01:08.217Z,1640
2016-12-17T10:02:16.901Z,1656
2016-12-17T10:03:25.583Z,1676
2016-12-17T10:04:34.267Z,1704
2016-12-17T10:05:42.956Z,1716
2016-12-17T10:06:51.638Z,1716
2016-12-17T10:08:00.325Z,1716
2016-12-17T10:09:09.018Z,1720
2016-12-17T10:10:17.706Z,1732
2016-12-17T10:11:26.390Z,1756
2016-12-17T10:12:35.136Z,1780
2016-12-17T10:13:43.822Z,1788
2016-12-17T10:14:52.506Z,1768
2016-12-17T10:16:01.511Z,1772
2016-12-17T10:17:10.194Z,1788
2016-12-17T10:18:18.884Z,1784
2016-12-17T10:19:27.575Z,1772
2016-12-17T10:20:36.270Z,1740
2016-12-17T10:21:44.963Z,1684
2016-12-17T10:22:53.652Z,1640
2016-12-17T10:24:02.345Z,1636
2016-12-17T10:25:11.034Z,1652
2016-12-17T10:26:19.724Z,1688
2016-12-17T10:27:28.416Z,1748
2016-12-17T10:28:37.107Z,1816
2016-12-17T10:29:45.800Z,1868
2016-12-17T10:30:54.490Z,1884
2016-12-17T10:32:03.180Z,1868
2016-12-17T10:33:11.867Z,1816
2016-12-17T10:34:20.558Z,1804
2016-12-17T10:35:29.251Z,1808
2016-12-17T10:36:37.938Z,1796
2016-12-17T10:37:46.630Z,1796
2016-12-17T10:38:55.316Z,1820
2016-12-17T10:40:04.006Z,1856
2016-12-17T10:41:12.694Z,1900
2016-12-17T10:42:21.387Z,1932
2016-12-17T10:43:30.095Z,1944
2016-12-17T10:44:38.824Z,1940
2016-12-17T10:45:47.512Z,1936
2016-12-17T10:46:56.198Z,1932
2016-12-17T10:48:04.888Z,1884
2016-12-17T10:49:13.583Z,1836
2016-12-17T10:50:22.276Z,1812
2016-12-17T10:51:30.962Z,1812
2016-12-17T10:52:39.652Z,1840
2016-12-17T10:53:48.654Z,1876
2016-12-17T10:54:57.344Z,1880
2016-12-17T10:56:06.032Z,1888
2016-12-17T10:57:14.721Z,1928
2016-12-17T10:58:23.411Z,2000
2016-12-17T10:59:32.098Z,2120
2016-12-17T11:00:40.790Z,2232
2016-12-17T11:01:49.481Z,2316
2016-12-17T11:02:58.169Z,2324
2016-12-17T11:04:06.852Z,2264
2016-12-17T11:05:15.541Z,2196
2016-12-17T11:06:24.240Z,2140
2016-12-17T11:07:33.242Z,2056
2016-12-17T11:08:41.964Z,1964
2016-12-17T11:09:50.648Z,1840
2016-12-17T11:10:59.342Z,1688
2016-12-17T11:12:08.037Z,1520
2016-12-17T11:13:16.720Z,1388
2016-12-17T11:14:25.438Z,1352
2016-12-17T11:15:34.134Z,1380
2016-12-17T11:16:43.176Z,1388
2016-12-17T11:17:51.866Z,1372
2016-12-17T11:19:00.553Z,1360
2016-12-17T11:20:09.239Z,1340
2016-12-17T11:21:17.932Z,1296
2016-12-17T11:22:26.622Z,1256
2016-12-17T11:23:35.341Z,1220
2016-12-17T11:24:44.027Z,1192
2016-12-17T11:25:52.715Z,1188
2016-12-17T11:27:01.406Z,1196
2016-12-17T11:28:10.094Z,1204
2016-12-17T11:29:18.783Z,1260
2016-12-17T11:30:27.474Z,1336
2016-12-17T11:31:36.159Z,1368
2016-12-17T11:32:44.850Z,1420
2016-12-17T11:33:53.540Z,1536
2016-12-17T11:35:02.232Z,1680
2016-12-17T11:36:11.234Z,1744
2016-12-17T11:37:19.922Z,1708
2016-12-17T11:38:28.648Z,1584
2016-12-17T11:39:37.338Z,1436
2016-12-17T11:40:46.028Z,1312
2016-12-17T11:41:54.716Z,1224
2016-12-17T11:43:03.409Z,1172
2016-12-17T11:44:12.099Z,1144
2016-12-17T11:45:20.788Z,1160
2016-12-17T11:46:29.476Z,1220
2016-12-17T11:47:38.164Z,1312
2016-12-17T11:48:46.855Z,1400
2016-12-17T11:49:55.577Z,1516
2016-12-17T11:51:04.269Z,1680
2016-12-17T11:52:12.956Z,1796
2016-12-17T11:53:21.653Z,1828
2016-12-17T11:54:30.338Z,1784
2016-12-17T11:55:39.023Z,1784
2016-12-17T11:56:47.710Z,1780
2016-12-17T11:57:56.399Z,1772
2016-12-17T11:59:05.085Z,1776
2016-12-17T12:00:13.773Z,1812
2016-12-17T12:01:22.461Z,1824
2016-12-17T12:02:31.152Z,1788
2016-12-17T12:03:39.843Z,1728
2016-12-17T12:04:48.536Z,1620
2016-12-17T12:05:57.228Z,1520
2016-12-17T12:07:05.912Z,1432
2016-12-17T12:08:14.603Z,1368
2016-12-17T12:09:23.289Z,1332
2016-12-17T12:10:31.980Z,1348
2016-12-17T12:11:40.701Z,1396
2016-12-17T12:12:49.385Z,1488
2016-12-17T12:13:58.073Z,1592
2016-12-17T12:15:07.080Z,1668
2016-12-17T12:16:15.767Z,1776
2016-12-17T12:17:24.459Z,1804
2016-12-17T12:18:33.149Z,1848
2016-12-17T12:19:41.843Z,1908
2016-12-17T12:20:50.532Z,1856
2016-12-17T12:21:59.220Z,1784
2016-12-17T12:23:07.907Z,1652
2016-12-17T12:24:16.589Z,1592
2016-12-17T12:25:25.277Z,1560
2016-12-17T12:26:33.977Z,1492
2016-12-17T12:27:42.667Z,1416
2016-12-17T12:28:51.358Z,1340
2016-12-17T12:30:00.050Z,1332
2016-12-17T12:31:08.769Z,1384
2016-12-17T12:32:17.451Z,1392
2016-12-17T12:33:26.143Z,1384
2016-12-17T12:34:34.834Z,1368
2016-12-17T12:35:43.525Z,1384
2016-12-17T12:36:52.220Z,1412
2016-12-17T12:38:00.908Z,1428
2016-12-17T12:39:09.604Z,1496
2016-12-17T12:40:18.298Z,1540
2016-12-17T12:41:26.988Z,1556
2016-12-17T12:42:35.708Z,1528
2016-12-17T12:43:44.405Z,1400
2016-12-17T12:44:53.098Z,1240
2016-12-17T12:46:01.787Z,1120
2016-12-17T12:47:10.476Z,1044
2016-12-17T12:48:19.174Z,960
2016-12-17T12:49:27.863Z,884
2016-12-17T12:50:36.585Z,828
2016-12-17T12:51:45.275Z,780
2016-12-17T12:52:53.977Z,736
2016-12-17T12:54:02.671Z,704
2016-12-17T12:55:11.368Z,704
2016-12-17T12:56:20.054Z,704
2016-12-17T12:57:28.741Z,692
2016-12-17T12:58:37.436Z,664
2016-12-17T12:59:46.122Z,624
2016-12-17T13:00:54.812Z,572
2016-12-17T13:02:03.501Z,536
2016-12-17T13:03:12.188Z,532
2016-12-17T13:04:21.202Z,548
2016-12-17T13:05:29.890Z,552
2016-12-17T13:06:38.580Z,556
2016-12-17T13:07:47.270Z,572
2016-12-17T13:08:55.956Z,584
2016-12-17T13:10:04.645Z,584
2016-12-17T13:11:13.335Z,584
2016-12-17T13:12:22.024Z,576
2016-12-17T13:13:30.711Z,580
2016-12-17T13:14:39.428Z,560
2016-12-17T13:15:48.111Z,552
2016-12-17T13:16:56.799Z,548
2016-12-17T13:18:05.488Z,548
2016-12-17T13:19:14.177Z,568
2016-12-17T13:20:22.863Z,600
2016-12-17T13:21:31.547Z,612
2016-12-17T13:22:40.232Z,608
2016-12-17T13:23:48.921Z,608
2016-12-17T13:24:57.606Z,616
2016-12-17T13:26:06.295Z,596
2016-12-17T13:27:14.993Z,568
2016-12-17T13:28:23.695Z,556
2016-12-17T13:29:32.383Z,544
2016-12-17T13:30:41.076Z,520
2016-12-17T13:31:49.794Z,492
2016-12-17T13:32:58.799Z,472
2016-12-17T13:34:07.488Z,448
2016-12-17T13:35:16.175Z,436
2016-12-17T13:36:24.865Z,432
2016-12-17T13:37:33.554Z,428
2016-12-17T13:38:42.236Z,428
2016-12-17T13:39:50.925Z,428
2016-12-17T13:40:59.609Z,416
2016-12-17T13:42:08.297Z,404
2016-12-17T13:43:16.988Z,380
2016-12-17T13:44:25.713Z,360
2016-12-17T13:45:34.432Z,352
2016-12-17T13:46:43.117Z,344
2016-12-17T13:47:51.805Z,336
2016-12-17T13:49:00.493Z,324
2016-12-17T13:50:09.177Z,308
2016-12-17T13:51:17.870Z,288
2016-12-17T13:52:26.563Z,272
2016-12-17T13:53:35.253Z,264
2016-12-17T13:54:43.939Z,252
2016-12-17T13:55:52.660Z,244
2016-12-17T13:57:01.348Z,232
2016-12-17T13:58:10.062Z,224
2016-12-17T13:59:18.752Z,216
2016-12-17T14:00:27.438Z,204
2016-12-17T14:01:36.125Z,196
2016-12-17T14:02:44.817Z,192
2016-12-17T14:03:53.821Z,180
2016-12-17T14:05:02.832Z,176
2016-12-17T14:06:11.517Z,168
2016-12-17T14:07:20.209Z,156
2016-12-17T14:08:28.919Z,148
2016-12-17T14:09:37.609Z,140
2016-12-17T14:10:46.305Z,132
2016-12-17T14:11:54.992Z,128
2016-12-17T14:13:03.677Z,120
2016-12-17T14:14:12.361Z,112
2016-12-17T14:15:21.052Z,104
2016-12-17T14:16:29.750Z,96
2016-12-17T14:17:38.443Z,88
2016-12-17T14:18:47.138Z,80
2016-12-17T14:19:56.146Z,72
2016-12-17T14:21:04.837Z,68
2016-12-17T14:22:13.527Z,64
2016-12-17T14:23:22.210Z,60
2016-12-17T14:24:30.894Z,56
2016-12-17T14:25:39.581Z,52
2016-12-17T14:26:48.274Z,48
2016-12-17T14:27:56.963Z,40
2016-12-17T14:29:05.648Z,40
2016-12-17T14:30:14.656Z,32
2016-12-17T14:31:23.343Z,28
2016-12-17T14:32:32.033Z,28
2016-12-17T14:33:40.721Z,24
2016-12-17T14:34:49.412Z,24
2016-12-17T14:35:58.101Z,24
2016-12-17T14:37:06.795Z,16
2016-12-17T14:38:15.797Z,16
2016-12-17T14:39:24.483Z,16
2016-12-17T14:40:33.482Z,16
2016-12-17T14:41:42.194Z,12
2016-12-17T14:42:50.886Z,12
2016-12-17T14:43:59.574Z,12
2016-12-17T14:45:08.265Z,12
2016-12-17T14:46:16.963Z,8
2016-12-17T14:47:25.651Z,8
2016-12-17T14:48:34.335Z,8
2016-12-17T14:49:43.030Z,4
2016-12-17T14:50:51.717Z,4
2016-12-17T14:52:00.403Z,4
2016-12-17T14:53:09.095Z,4
2016-12-17T14:54:17.784Z,4
2016-12-17T14:55:26.483Z,0
2016-12-17T14:56:35.172Z,4
2016-12-17T14:57:43.859Z,4
2016-12-17T14:58:52.547Z,0
2016-12-17T15:00:01.265Z,0
2016-12-17T15:01:09.952Z,0
2016-12-17T15:02:18.639Z,0
2016-12-17T15:03:27.325Z,0
2016-12-17T15:04:36.021Z,0
2016-12-17T15:05:44.742Z,0
2016-12-17T15:06:53.425Z,0
2016-12-17T15:08:02.127Z,0
2016-12-17T15:09:10.816Z,0
2016-12-17T15:10:19.580Z,0
2016-12-17T15:11:28.262Z,0
2016-12-17T15:12:36.951Z,0
2016-12-17T15:13:45.778Z,0
2016-12-17T15:14:54.467Z,0
2016-12-17T15:16:03.156Z,0
2016-12-17T15:17:11.840Z,0
2016-12-17T15:18:20.521Z,0
2016-12-17T15:19:29.208Z,0
2016-12-17T15:20:37.901Z,0
2016-12-17T15:21:46.617Z,0
2016-12-17T15:22:55.306Z,0
2016-12-17T15:24:04.044Z,0
2016-12-17T15:25:12.734Z,0
2016-12-17T15:26:21.429Z,0
2016-12-17T15:27:30.116Z,0
2016-12-17T15:28:38.801Z,0
2016-12-17T15:29:47.809Z,0
2016-12-17T15:30:56.499Z,0
2016-12-17T15:32:05.196Z,0
2016-12-17T15:33:13.879Z,0
2016-12-17T15:34:22.606Z,0
2016-12-17T15:35:31.295Z,0
2016-12-17T15:36:39.982Z,0
2016-12-17T15:37:48.666Z,0
2016-12-17T15:38:57.351Z,0
2016-12-17T15:40:06.065Z,0
2016-12-17T15:41:14.765Z,0
2016-12-17T15:42:23.454Z,0
2016-12-17T15:43:32.148Z,0
2016-12-17T15:44:40.836Z,0
2016-12-17T15:45:49.523Z,0
2016-12-17T15:46:58.212Z,0
2016-12-17T15:48:06.899Z,0
2016-12-17T15:49:15.626Z,0
2016-12-17T15:50:24.310Z,0
2016-12-17T15:51:32.997Z,0
2016-12-17T15:52:41.688Z,0
2016-12-17T15:53:50.379Z,0
2016-12-17T15:54:59.381Z,0
2016-12-17T15:56:08.096Z,0
2016-12-17T15:57:16.787Z,0
2016-12-17T15:58:25.469Z,0
2016-12-17T15:59:34.156Z,0
2016-12-17T16:00:42.849Z,0
2016-12-17T16:01:51.536Z,0
2016-12-17T16:03:00.226Z,0
2016-12-17T16:04:08.931Z,0
2016-12-17T16:05:17.615Z,0
2016-12-17T16:06:26.305Z,0
2016-12-17T16:07:34.992Z,0
2016-12-17T16:08:43.676Z,0
2016-12-17T16:09:52.386Z,0
2016-12-17T16:11:01.077Z,0
2016-12-17T16:12:09.768Z,0
2016-12-17T16:13:18.452Z,0
2016-12-17T16:14:27.142Z,0
2016-12-17T16:15:35.833Z,0
2016-12-17T16:16:44.516Z,0
2016-12-17T16:17:53.230Z,0
2016-12-17T16:19:01.921Z,0
2016-12-17T16:20:10.608Z,0